Strona główna
METAR-TAF:

METAR-TAF

Lotnisko :

Leconfield, Anglia

Szerokość geograficzna: 53-52-37N, Długość geograficzna: 0-26-15W, wysokość: 7 m

Aktualna obserwacja pogody

Raport powstał 1 godzina i 8 minut temu, godzina 18:50 UTC
Wiatr 13 kt od zachód
Temperatura 19°C
Wilgotność 56%
Ciśnienie 1008 hPa
Widzialność 10 km lub więcej

METAR: EGXV 201850Z AUTO 27013KT 9999 NCD 19/10 Q1008

czas: 20:58 (19:58 UTC)


TAF: brakujący

Obserwacja i prognoza pogody dla ponad 4000 lotnisk (raport METAR i TAF).

Dostępne stacje oznaczono żółtymi i czerwonymi punktami na mapie.

Najedź kursorem aby zobaczyć nazwę stacji.

Kliknij aby zobaczyć obserwacje i prognozy pogody.

Aby zmienić mapę: kliknij na zielony przycisk z czarnym krzyżykiem, aby powiększyć; na zielony przycisk z myślnikiem, aby pomniejszyć; na zielone strzałki, aby przejść do map sąsiednich.


METAR-TAF: